createdAt,value
2022-12-03T00:03:38.901Z,17.63
2022-12-03T00:08:41.829Z,17.47
2022-12-03T00:13:45.393Z,19.17
2022-12-03T00:18:47.796Z,17.40
2022-12-03T00:23:50.322Z,17.83
2022-12-03T00:28:54.698Z,17.53
2022-12-03T00:33:57.198Z,18.07
2022-12-03T00:38:59.572Z,18.13
2022-12-03T00:44:01.988Z,17.33
2022-12-03T00:49:04.431Z,18.53
2022-12-03T00:54:06.805Z,17.83
2022-12-03T00:59:09.750Z,18.50
2022-12-03T01:04:12.189Z,19.43
2022-12-03T01:09:14.576Z,18.90
2022-12-03T01:14:19.319Z,18.97
2022-12-03T01:19:21.736Z,19.63
2022-12-03T01:24:24.173Z,18.50
2022-12-03T01:29:27.042Z,18.77
2022-12-03T01:34:29.488Z,19.60
2022-12-03T01:39:31.883Z,18.67
2022-12-03T01:44:36.505Z,18.90
2022-12-03T01:49:54.947Z,18.73
2022-12-03T01:55:00.073Z,18.90
2022-12-03T02:00:04.084Z,18.13
2022-12-03T02:05:17.338Z,18.33
2022-12-03T02:10:30.251Z,17.53
2022-12-03T02:15:32.726Z,17.30
2022-12-03T02:20:46.682Z,17.33
2022-12-03T02:25:49.227Z,16.67
2022-12-03T02:30:51.640Z,16.53
2022-12-03T02:35:56.058Z,17.47
2022-12-03T02:41:06.571Z,16.27
2022-12-03T02:46:09.121Z,17.10
2022-12-03T02:51:11.702Z,17.00
2022-12-03T02:56:17.702Z,17.10
2022-12-03T03:01:20.162Z,16.03
2022-12-03T03:06:24.311Z,17.03
2022-12-03T03:11:27.069Z,17.30
2022-12-03T03:16:29.728Z,18.63
2022-12-03T03:21:32.273Z,17.40
2022-12-03T03:26:34.839Z,16.93
2022-12-03T03:31:38.138Z,16.20
2022-12-03T03:36:41.200Z,17.97
2022-12-03T03:41:45.970Z,16.97
2022-12-03T03:46:48.785Z,17.50
2022-12-03T03:51:51.596Z,17.30
2022-12-03T03:56:54.008Z,17.03
2022-12-03T04:01:56.989Z,16.77
2022-12-03T04:06:59.539Z,16.73
2022-12-03T04:12:20.574Z,16.13
2022-12-03T04:17:23.217Z,17.37
2022-12-03T04:22:40.748Z,17.47
2022-12-03T04:28:01.655Z,16.20
2022-12-03T04:33:22.831Z,17.37
2022-12-03T04:38:25.201Z,16.53
2022-12-03T04:43:28.445Z,17.20
2022-12-03T04:48:30.907Z,18.00
2022-12-03T04:53:36.110Z,16.43
2022-12-03T04:58:38.673Z,18.13
2022-12-03T05:03:41.073Z,16.87
2022-12-03T05:08:43.497Z,17.67
2022-12-03T05:13:45.847Z,17.13
2022-12-03T05:18:48.354Z,18.30
2022-12-03T05:23:50.908Z,17.47
2022-12-03T05:28:53.297Z,19.30
2022-12-03T05:33:55.871Z,18.53
2022-12-03T05:38:58.255Z,18.10
2022-12-03T05:44:00.604Z,18.37
2022-12-03T05:49:02.974Z,17.90
2022-12-03T05:54:05.554Z,18.27
2022-12-03T05:59:08.060Z,17.27
2022-12-03T06:04:10.607Z,18.27
2022-12-03T06:09:13.164Z,18.13
2022-12-03T06:14:15.629Z,18.47
2022-12-03T06:19:19.350Z,19.00
2022-12-03T06:24:21.864Z,18.67
2022-12-03T06:29:24.307Z,19.07
2022-12-03T06:34:26.669Z,19.77
2022-12-03T06:39:30.752Z,19.27
2022-12-03T06:44:33.272Z,19.30
2022-12-03T06:49:35.720Z,20.47
2022-12-03T06:54:38.049Z,19.20
2022-12-03T06:59:40.484Z,19.57
2022-12-03T07:04:46.257Z,19.50
2022-12-03T07:09:48.909Z,20.90
2022-12-03T07:14:52.071Z,19.87
2022-12-03T07:19:54.748Z,18.87
2022-12-03T07:24:57.217Z,20.13
2022-12-03T07:29:59.563Z,18.63
2022-12-03T07:35:02.829Z,20.00
2022-12-03T07:40:06.176Z,24.00
2022-12-03T07:45:10.278Z,24.83
2022-12-03T07:50:28.274Z,22.03
2022-12-03T07:55:30.766Z,23.50
2022-12-03T08:00:33.479Z,18.83
2022-12-03T08:05:36.145Z,27.73
2022-12-03T08:10:38.468Z,18.63
2022-12-03T08:15:42.088Z,19.97
2022-12-03T08:20:46.421Z,21.07
2022-12-03T08:25:50.532Z,19.83
2022-12-03T08:31:19.656Z,26.73
2022-12-03T08:36:30.231Z,29.73
2022-12-03T08:41:51.131Z,23.07
2022-12-03T08:47:08.849Z,18.40
2022-12-03T08:52:20.304Z,26.40
2022-12-03T08:57:30.251Z,20.63
2022-12-03T09:02:34.402Z,19.73
2022-12-03T09:07:36.775Z,19.20
2022-12-03T09:12:39.140Z,20.27
2022-12-03T09:17:41.499Z,20.40
2022-12-03T09:22:43.925Z,17.67
2022-12-03T09:27:46.267Z,18.40
2022-12-03T09:32:48.670Z,19.10
2022-12-03T09:37:52.372Z,17.17
2022-12-03T09:42:58.471Z,19.03
2022-12-03T09:48:03.968Z,18.43
2022-12-03T09:53:06.585Z,18.20
2022-12-03T09:58:12.669Z,22.20
2022-12-03T10:03:18.593Z,18.60
2022-12-03T10:08:22.615Z,19.00
2022-12-03T10:13:30.647Z,21.43
2022-12-03T10:18:41.264Z,18.57
2022-12-03T10:23:48.252Z,16.37
2022-12-03T10:28:56.705Z,16.87
2022-12-03T10:33:59.069Z,16.77
2022-12-03T10:39:15.881Z,15.07
2022-12-03T10:44:20.771Z,15.20
2022-12-03T10:49:23.119Z,16.67
2022-12-03T10:54:27.416Z,14.77
2022-12-03T10:59:32.808Z,16.73
2022-12-03T11:04:36.487Z,15.60
2022-12-03T11:09:38.864Z,17.63
2022-12-03T11:14:51.951Z,16.83
2022-12-03T11:19:54.544Z,15.43
2022-12-03T11:25:25.109Z,15.83
2022-12-03T11:30:53.644Z,16.93
2022-12-03T11:36:05.508Z,16.83
2022-12-03T11:41:10.603Z,15.50
2022-12-03T11:46:13.089Z,16.17
2022-12-03T11:51:18.130Z,16.30
2022-12-03T11:56:24.398Z,16.37
2022-12-03T12:01:39.444Z,17.17
2022-12-03T12:06:48.765Z,15.57
2022-12-03T12:11:52.597Z,17.13
2022-12-03T12:16:55.389Z,17.40
2022-12-03T12:22:28.639Z,17.57
2022-12-03T12:27:36.286Z,17.50
2022-12-03T12:32:53.509Z,16.33
2022-12-03T12:38:00.882Z,16.17
2022-12-03T12:43:15.289Z,17.10
2022-12-03T12:48:27.642Z,16.20
2022-12-03T12:53:35.979Z,17.10
2022-12-03T12:58:38.438Z,16.97
2022-12-03T13:03:40.868Z,16.03
2022-12-03T13:08:46.863Z,17.63
2022-12-03T13:13:49.299Z,15.30
2022-12-03T13:18:57.574Z,14.57
2022-12-03T13:24:01.304Z,15.60
2022-12-03T13:29:12.042Z,15.13
2022-12-03T13:34:18.984Z,29.23
2022-12-03T13:39:31.279Z,26.37
2022-12-03T13:44:34.593Z,16.83
2022-12-03T13:49:37.083Z,17.50
2022-12-03T13:54:40.291Z,16.67
2022-12-03T13:59:42.796Z,16.20
2022-12-03T14:04:45.332Z,19.30
2022-12-03T14:09:47.934Z,17.53
2022-12-03T14:14:50.829Z,17.93
2022-12-03T14:19:53.734Z,24.23
2022-12-03T14:24:57.612Z,18.83
2022-12-03T14:30:00.153Z,19.33
2022-12-03T14:35:08.125Z,22.40
2022-12-03T14:40:16.519Z,25.40
2022-12-03T14:45:22.974Z,21.93
2022-12-03T14:50:25.424Z,20.80
2022-12-03T14:55:27.965Z,18.20
2022-12-03T15:00:30.335Z,17.83
2022-12-03T15:05:32.661Z,17.50
2022-12-03T15:10:35.062Z,18.07
2022-12-03T15:15:37.431Z,17.47
2022-12-03T15:20:39.919Z,18.13
2022-12-03T15:25:42.373Z,17.57
2022-12-03T15:30:44.835Z,18.07
2022-12-03T15:35:47.400Z,18.80
2022-12-03T15:40:49.877Z,19.47
2022-12-03T15:45:52.407Z,20.17
2022-12-03T15:50:54.789Z,20.30
2022-12-03T15:55:57.095Z,20.33
2022-12-03T16:01:00.207Z,21.17
2022-12-03T16:06:02.734Z,24.37
2022-12-03T16:11:05.603Z,24.17
2022-12-03T16:16:08.160Z,20.77
2022-12-03T16:21:10.658Z,24.37
2022-12-03T16:26:13.050Z,27.13
2022-12-03T16:31:15.478Z,30.03
2022-12-03T16:36:17.927Z,28.33
2022-12-03T16:41:22.325Z,28.00
2022-12-03T16:46:27.585Z,24.87
2022-12-03T16:51:30.338Z,24.77
2022-12-03T16:56:32.764Z,28.43
2022-12-03T17:01:35.207Z,24.70
2022-12-03T17:06:37.886Z,23.23
2022-12-03T17:11:40.478Z,25.07
2022-12-03T17:16:42.913Z,23.70
2022-12-03T17:21:46.576Z,23.23
2022-12-03T17:26:49.043Z,21.57
2022-12-03T17:31:51.426Z,22.63
2022-12-03T17:36:54.085Z,22.60
2022-12-03T17:41:56.485Z,23.00
2022-12-03T17:46:59.024Z,22.67
2022-12-03T17:52:01.616Z,23.97
2022-12-03T17:57:04.151Z,23.33
2022-12-03T18:02:06.831Z,24.00
2022-12-03T18:07:09.239Z,24.37
2022-12-03T18:12:11.651Z,22.50
2022-12-03T18:17:14.284Z,23.40
2022-12-03T18:22:17.195Z,22.63
2022-12-03T18:27:23.209Z,23.50
2022-12-03T18:32:29.181Z,23.27
2022-12-03T18:37:33.016Z,23.67
2022-12-03T18:42:35.667Z,23.83
2022-12-03T18:47:38.813Z,23.43
2022-12-03T18:52:41.271Z,22.77
2022-12-03T18:57:43.658Z,23.60
2022-12-03T19:03:02.309Z,24.40
2022-12-03T19:08:13.837Z,23.17
2022-12-03T19:13:16.474Z,23.10
2022-12-03T19:18:18.964Z,22.57
2022-12-03T19:23:21.399Z,24.50
2022-12-03T19:28:23.956Z,21.53
2022-12-03T19:33:28.679Z,23.43
2022-12-03T19:38:32.587Z,23.57
2022-12-03T19:43:36.656Z,24.30
2022-12-03T19:48:40.718Z,23.93
2022-12-03T19:53:43.375Z,24.90
2022-12-03T19:58:46.987Z,24.10
2022-12-03T20:03:52.530Z,25.13
2022-12-03T20:09:00.781Z,26.20
2022-12-03T20:14:06.683Z,24.40
2022-12-03T20:19:12.570Z,24.47
2022-12-03T20:24:17.083Z,24.93
2022-12-03T20:29:19.456Z,24.10
2022-12-03T20:34:22.005Z,24.03
2022-12-03T20:39:24.413Z,23.53
2022-12-03T20:44:26.802Z,24.67
2022-12-03T20:49:29.180Z,23.87
2022-12-03T20:54:31.656Z,26.70
2022-12-03T20:59:34.086Z,26.40
2022-12-03T21:04:36.553Z,31.03
2022-12-03T21:09:38.984Z,22.83
2022-12-03T21:14:41.329Z,22.77
2022-12-03T21:19:43.677Z,24.90
2022-12-03T21:24:46.451Z,43.30
2022-12-03T21:29:48.982Z,48.57
2022-12-03T21:34:51.365Z,32.23
2022-12-03T21:39:54.050Z,37.83
2022-12-03T21:44:56.872Z,50.17
2022-12-03T21:49:59.325Z,32.13
2022-12-03T21:55:01.731Z,38.13
2022-12-03T22:00:08.703Z,29.60
2022-12-03T22:05:13.925Z,37.03
2022-12-03T22:10:16.364Z,28.23
2022-12-03T22:15:19.689Z,27.90
2022-12-03T22:20:22.358Z,26.73
2022-12-03T22:25:24.790Z,24.60
2022-12-03T22:30:27.171Z,25.40
2022-12-03T22:35:29.580Z,23.53
2022-12-03T22:40:31.929Z,23.07
2022-12-03T22:45:35.237Z,24.50
2022-12-03T22:50:45.730Z,25.50
2022-12-03T22:55:56.290Z,22.97
2022-12-03T23:01:02.954Z,23.93
2022-12-03T23:06:10.787Z,24.27
2022-12-03T23:11:13.555Z,22.97
2022-12-03T23:16:19.914Z,23.00
2022-12-03T23:21:29.459Z,23.80
2022-12-03T23:26:37.575Z,23.33
2022-12-03T23:31:39.979Z,22.87
2022-12-03T23:36:42.544Z,21.97
2022-12-03T23:41:45.007Z,22.40
2022-12-03T23:46:48.187Z,20.63
2022-12-03T23:51:50.676Z,23.53
2022-12-03T23:56:53.168Z,22.73
